createdAt,value
2023-06-23T00:06:05.317Z,90.05
2023-06-23T00:09:42.561Z,90.02
2023-06-23T00:13:08.210Z,89.93
2023-06-23T00:16:12.272Z,89.10
2023-06-23T00:19:22.143Z,89.77
2023-06-23T00:22:26.544Z,90.12
2023-06-23T00:25:31.119Z,90.68
2023-06-23T00:28:41.419Z,90.98
2023-06-23T00:31:46.396Z,91.00
2023-06-23T00:34:49.911Z,91.74
2023-06-23T00:37:54.954Z,90.78
2023-06-23T00:41:07.894Z,91.02
2023-06-23T00:44:18.046Z,90.65
2023-06-23T00:47:37.189Z,91.93
2023-06-23T00:50:44.515Z,92.30
2023-06-23T00:53:53.929Z,93.24
2023-06-23T00:56:59.815Z,93.68
2023-06-23T01:00:13.654Z,94.32
2023-06-23T01:03:38.660Z,94.42
2023-06-23T01:07:10.555Z,94.89
2023-06-23T01:10:28.142Z,94.82
2023-06-23T01:13:56.692Z,96.15
2023-06-23T01:17:12.205Z,95.27
2023-06-23T01:20:41.384Z,95.63
2023-06-23T01:24:14.063Z,96.21
2023-06-23T01:28:04.384Z,96.01
2023-06-23T01:31:15.083Z,95.72
2023-06-23T01:34:30.111Z,94.83
2023-06-23T01:38:05.367Z,94.90
2023-06-23T01:41:15.840Z,95.72
2023-06-23T01:44:25.881Z,95.23
2023-06-23T01:47:34.843Z,95.42
2023-06-23T01:51:04.596Z,95.81
2023-06-23T01:54:15.008Z,96.59
2023-06-23T01:57:26.838Z,97.31
2023-06-23T02:00:33.230Z,97.60
2023-06-23T02:03:41.436Z,98.17
2023-06-23T02:06:53.591Z,98.80
2023-06-23T02:10:20.767Z,97.79
2023-06-23T02:13:31.135Z,97.27
2023-06-23T02:17:05.718Z,96.92
2023-06-23T02:20:18.094Z,96.62
2023-06-23T02:23:43.813Z,96.16
2023-06-23T02:26:48.820Z,95.73
2023-06-23T02:29:56.301Z,95.32
2023-06-23T02:33:22.510Z,95.81
2023-06-23T02:36:46.029Z,96.00
2023-06-23T02:39:57.092Z,96.63
2023-06-23T02:43:57.411Z,96.82
2023-06-23T02:47:04.802Z,97.01
2023-06-23T02:50:14.650Z,97.35
2023-06-23T02:53:49.774Z,97.52
2023-06-23T02:56:57.966Z,97.53
2023-06-23T03:00:07.471Z,96.96
2023-06-23T03:03:23.056Z,97.00
2023-06-23T03:06:28.299Z,97.55
2023-06-23T03:09:46.723Z,98.24
2023-06-23T03:12:58.273Z,97.80
2023-06-23T03:16:47.746Z,97.63
2023-06-23T03:20:08.493Z,96.98
2023-06-23T03:23:15.530Z,97.08
2023-06-23T03:26:32.344Z,97.05
2023-06-23T03:29:49.437Z,96.39
2023-06-23T03:33:29.388Z,96.04
2023-06-23T03:36:57.672Z,96.02
2023-06-23T03:40:09.697Z,96.61
2023-06-23T03:44:03.983Z,95.89
2023-06-23T03:47:32.766Z,95.02
2023-06-23T03:50:41.180Z,94.36
2023-06-23T03:53:46.842Z,94.31
2023-06-23T03:57:00.697Z,93.20
2023-06-23T04:00:13.250Z,91.63
2023-06-23T04:03:23.198Z,92.52
2023-06-23T04:06:31.828Z,91.30
2023-06-23T04:09:47.177Z,91.55
2023-06-23T04:13:30.722Z,90.26
2023-06-23T04:16:41.914Z,90.63
2023-06-23T04:19:57.043Z,89.12
2023-06-23T04:23:42.378Z,88.58
2023-06-23T04:26:56.021Z,87.34
2023-06-23T04:30:04.532Z,85.95
2023-06-23T04:33:12.194Z,86.19
2023-06-23T04:36:23.586Z,85.67
2023-06-23T04:40:00.857Z,84.53
2023-06-23T04:43:17.441Z,85.33
2023-06-23T04:46:41.362Z,84.21
2023-06-23T04:49:57.655Z,83.58
2023-06-23T04:53:33.031Z,84.26
2023-06-23T04:57:03.894Z,82.84
2023-06-23T05:00:32.808Z,82.35
2023-06-23T05:04:00.165Z,81.85
2023-06-23T05:07:40.092Z,81.93
2023-06-23T05:11:15.806Z,80.68
2023-06-23T05:14:52.824Z,81.33
2023-06-23T05:18:23.033Z,79.71
2023-06-23T05:22:00.154Z,78.39
2023-06-23T05:25:32.654Z,78.18
2023-06-23T05:29:19.905Z,78.51
2023-06-23T05:32:49.111Z,78.18
2023-06-23T05:36:24.861Z,77.25
2023-06-23T05:39:53.648Z,77.55
2023-06-23T05:43:22.550Z,76.77
2023-06-23T05:47:02.761Z,77.54
2023-06-23T05:50:54.604Z,76.02
2023-06-23T05:54:41.855Z,75.43
2023-06-23T05:58:23.360Z,75.27
2023-06-23T06:02:01.364Z,74.14
2023-06-23T06:05:40.453Z,74.87
2023-06-23T06:09:08.586Z,74.51
2023-06-23T06:12:44.635Z,73.54
2023-06-23T06:16:23.380Z,73.04
2023-06-23T06:20:06.952Z,71.47
2023-06-23T06:23:48.076Z,71.79
2023-06-23T06:27:31.962Z,71.02
2023-06-23T06:31:05.484Z,70.33
2023-06-23T06:34:10.975Z,69.76
2023-06-23T06:37:39.433Z,67.94
2023-06-23T06:41:26.494Z,69.11
2023-06-23T06:44:47.844Z,68.16
2023-06-23T06:48:14.634Z,68.82
2023-06-23T06:51:23.549Z,66.37
2023-06-23T06:54:47.251Z,65.52
2023-06-23T06:58:47.105Z,66.16
2023-06-23T07:02:17.481Z,64.18
2023-06-23T07:05:24.734Z,63.57
2023-06-23T07:08:28.281Z,63.94
2023-06-23T07:11:37.132Z,62.64
2023-06-23T07:15:03.660Z,61.25
2023-06-23T07:18:17.402Z,60.80
2023-06-23T07:21:44.905Z,60.29
2023-06-23T07:29:15.364Z,61.61
2023-06-23T07:32:41.418Z,59.83
2023-06-23T07:36:16.633Z,58.84
2023-06-23T07:39:21.152Z,56.79
2023-06-23T07:42:28.574Z,53.34
2023-06-23T07:45:35.056Z,52.15
2023-06-23T07:48:41.392Z,50.61
2023-06-23T07:52:06.156Z,50.24
2023-06-23T07:55:21.745Z,49.12
2023-06-23T07:58:32.823Z,49.41
2023-06-23T08:01:58.589Z,49.22
2023-06-23T08:05:06.933Z,47.17
2023-06-23T08:08:16.875Z,46.51
2023-06-23T08:11:25.188Z,48.04
2023-06-23T08:14:55.488Z,47.58
2023-06-23T08:18:05.318Z,46.70
2023-06-23T08:21:17.608Z,47.90
2023-06-23T08:24:38.063Z,50.09
2023-06-23T08:27:45.988Z,47.65
2023-06-23T08:30:51.664Z,44.41
2023-06-23T08:34:15.211Z,45.57
2023-06-23T08:37:18.726Z,49.39
2023-06-23T08:40:42.960Z,44.88
2023-06-23T08:44:07.148Z,43.98
2023-06-23T08:47:15.591Z,41.70
2023-06-23T08:50:39.115Z,41.94
2023-06-23T08:54:14.559Z,40.77
2023-06-23T08:57:22.442Z,45.13
2023-06-23T09:00:45.708Z,41.13
2023-06-23T09:03:58.421Z,38.84
2023-06-23T09:07:05.431Z,39.41
2023-06-23T09:10:32.467Z,36.11
2023-06-23T09:13:46.459Z,37.40
2023-06-23T09:17:13.682Z,39.48
2023-06-23T09:20:37.321Z,40.83
2023-06-23T09:23:58.549Z,40.37
2023-06-23T09:27:42.590Z,41.47
2023-06-23T09:30:52.470Z,39.78
2023-06-23T09:33:55.705Z,41.72
2023-06-23T09:37:34.766Z,44.39
2023-06-23T09:40:39.212Z,43.17
2023-06-23T09:44:17.673Z,39.51
2023-06-23T09:47:23.313Z,40.15
2023-06-23T09:50:31.434Z,40.60
2023-06-23T09:53:43.046Z,37.35
2023-06-23T09:56:46.278Z,36.54
2023-06-23T09:59:54.792Z,36.83
2023-06-23T10:03:18.494Z,35.28
2023-06-23T10:06:37.300Z,40.04
2023-06-23T10:10:22.126Z,41.31
2023-06-23T10:13:37.585Z,37.88
2023-06-23T10:16:46.976Z,37.51
2023-06-23T10:19:52.065Z,36.81
2023-06-23T10:23:15.804Z,39.11
2023-06-23T10:26:23.825Z,37.48
2023-06-23T10:29:31.104Z,39.04
2023-06-23T10:32:36.229Z,35.98
2023-06-23T10:35:43.940Z,36.33
2023-06-23T10:38:48.444Z,36.22
2023-06-23T10:41:54.211Z,34.79
2023-06-23T10:44:59.581Z,37.42
2023-06-23T10:48:02.987Z,36.06
2023-06-23T10:51:06.283Z,35.01
2023-06-23T10:54:12.081Z,33.41
2023-06-23T10:57:17.994Z,34.40
2023-06-23T11:00:34.482Z,33.62
2023-06-23T11:03:39.697Z,31.67
2023-06-23T11:06:43.000Z,35.25
2023-06-23T11:10:00.038Z,35.77
2023-06-23T11:13:15.228Z,32.98
2023-06-23T11:16:39.384Z,33.26
2023-06-23T11:19:44.410Z,32.22
2023-06-23T11:23:14.078Z,30.20
2023-06-23T11:26:32.385Z,31.76
2023-06-23T11:29:35.433Z,31.22
2023-06-23T11:32:41.069Z,32.80
2023-06-23T11:35:44.257Z,31.77
2023-06-23T11:38:47.943Z,33.75
2023-06-23T11:41:54.022Z,35.12
2023-06-23T11:45:01.295Z,35.29
2023-06-23T11:48:30.713Z,34.24
2023-06-23T11:51:37.734Z,33.00
2023-06-23T11:55:01.367Z,34.51
2023-06-23T11:58:17.219Z,32.95
2023-06-23T12:01:23.397Z,35.04
2023-06-23T12:04:49.047Z,32.90
2023-06-23T12:08:17.555Z,31.81
2023-06-23T12:11:40.963Z,30.33
2023-06-23T12:14:45.231Z,32.42
2023-06-23T12:17:49.427Z,31.18
2023-06-23T12:20:57.480Z,34.71
2023-06-23T12:24:15.027Z,30.86
2023-06-23T12:27:53.816Z,31.96
2023-06-23T12:31:00.039Z,35.25
2023-06-23T12:34:03.166Z,36.78
2023-06-23T12:37:14.529Z,34.50
2023-06-23T12:40:36.252Z,34.19
2023-06-23T12:43:44.929Z,35.20
2023-06-23T12:47:13.071Z,33.49
2023-06-23T12:50:38.420Z,33.56
2023-06-23T12:53:55.913Z,35.55
2023-06-23T12:57:04.741Z,36.10
2023-06-23T13:00:29.792Z,36.60
2023-06-23T13:03:57.940Z,36.16
2023-06-23T13:07:02.207Z,37.00
2023-06-23T13:10:12.064Z,38.25
2023-06-23T13:13:15.472Z,38.33
2023-06-23T13:16:19.370Z,39.06
2023-06-23T13:19:28.039Z,41.45
2023-06-23T13:22:52.632Z,41.49
2023-06-23T13:25:55.684Z,42.36
2023-06-23T13:29:04.158Z,42.13
2023-06-23T13:32:14.548Z,41.93
2023-06-23T13:35:26.494Z,43.55
2023-06-23T13:38:30.153Z,43.08
2023-06-23T13:41:33.551Z,44.05
2023-06-23T13:44:56.955Z,43.58
2023-06-23T13:48:00.278Z,45.90
2023-06-23T13:51:03.665Z,45.30
2023-06-23T13:54:08.008Z,45.59
2023-06-23T13:57:14.144Z,46.99
2023-06-23T14:00:44.549Z,46.63
2023-06-23T14:04:08.411Z,47.71
2023-06-23T14:07:20.922Z,46.60
2023-06-23T14:10:25.246Z,46.87
2023-06-23T14:13:31.596Z,46.40
2023-06-23T14:16:38.395Z,46.65
2023-06-23T14:19:46.259Z,47.49
2023-06-23T14:22:51.775Z,46.94
2023-06-23T14:25:56.824Z,47.33
2023-06-23T14:29:00.158Z,46.61
2023-06-23T14:32:54.430Z,45.58
2023-06-23T14:36:09.010Z,45.04
2023-06-23T14:39:18.232Z,45.61
2023-06-23T14:42:33.979Z,45.98
2023-06-23T14:46:08.100Z,45.57
2023-06-23T14:49:14.954Z,46.87
2023-06-23T14:53:15.681Z,47.42
2023-06-23T15:02:09.981Z,47.08
2023-06-23T15:13:03.322Z,47.68
2023-06-23T15:13:44.335Z,46.79
2023-06-23T15:21:54.276Z,45.10
2023-06-23T15:30:02.196Z,46.77
2023-06-23T15:34:51.467Z,46.27
2023-06-23T15:41:49.379Z,45.69
2023-06-23T15:46:43.191Z,45.16
2023-06-23T15:49:31.502Z,45.60
2023-06-23T15:53:10.780Z,45.39
2023-06-23T15:57:21.933Z,45.27
2023-06-23T16:00:51.300Z,44.97
2023-06-23T16:04:35.727Z,45.27
2023-06-23T16:07:56.236Z,45.83
2023-06-23T16:11:21.944Z,46.26
2023-06-23T16:23:36.268Z,47.61
2023-06-23T16:54:03.862Z,45.07
2023-06-23T17:16:44.043Z,45.98
2023-06-23T18:12:33.733Z,54.60
2023-06-23T18:16:13.919Z,54.42
2023-06-23T18:19:49.359Z,54.68
2023-06-23T18:23:24.581Z,54.50
2023-06-23T18:27:20.407Z,54.57
2023-06-23T18:31:00.109Z,53.55
2023-06-23T18:34:58.069Z,51.95
2023-06-23T18:39:05.357Z,51.51
2023-06-23T18:43:01.403Z,52.36
2023-06-23T18:46:26.544Z,52.39
2023-06-23T18:49:50.232Z,52.98
2023-06-23T18:53:40.966Z,52.65
2023-06-23T18:57:24.568Z,53.23
2023-06-23T19:00:56.355Z,53.01
2023-06-23T19:04:20.366Z,52.77
2023-06-23T19:07:58.398Z,53.33
2023-06-23T19:11:39.792Z,53.99
2023-06-23T19:15:20.706Z,54.56
2023-06-23T19:18:48.142Z,60.54
2023-06-23T19:22:15.781Z,58.82
2023-06-23T19:25:55.004Z,60.13
2023-06-23T19:29:34.142Z,60.99
2023-06-23T19:33:25.708Z,59.81
2023-06-23T19:36:53.684Z,59.14
2023-06-23T19:40:27.285Z,57.32
2023-06-23T19:43:38.692Z,57.32
2023-06-23T19:47:11.508Z,57.83
2023-06-23T19:50:45.726Z,66.80
2023-06-23T19:54:29.182Z,75.92
2023-06-23T19:57:58.813Z,85.47
2023-06-23T20:01:33.721Z,97.56
2023-06-23T20:05:01.781Z,100.00
2023-06-23T20:08:05.712Z,100.00
2023-06-23T20:11:50.684Z,100.00
2023-06-23T20:15:15.625Z,100.00
2023-06-23T20:18:32.938Z,100.00
2023-06-23T20:22:09.782Z,100.00
2023-06-23T20:25:29.539Z,100.00
2023-06-23T20:29:03.030Z,100.00
2023-06-23T20:32:24.350Z,100.00
2023-06-23T20:35:52.135Z,100.00
2023-06-23T20:39:29.217Z,100.00
2023-06-23T20:43:01.289Z,100.00
2023-06-23T20:46:32.214Z,100.00
2023-06-23T20:50:05.748Z,100.00
2023-06-23T20:53:40.318Z,100.00
2023-06-23T20:57:16.693Z,100.00
2023-06-23T21:00:56.280Z,100.00
2023-06-23T21:04:22.318Z,100.00
2023-06-23T21:07:50.303Z,100.00
2023-06-23T21:10:53.827Z,100.00
2023-06-23T21:14:06.312Z,100.00
2023-06-23T21:17:17.560Z,100.00
2023-06-23T21:20:29.043Z,100.00
2023-06-23T21:23:32.733Z,100.00
2023-06-23T21:26:37.659Z,100.00
2023-06-23T21:29:43.322Z,100.00
2023-06-23T21:33:07.360Z,100.00
2023-06-23T21:36:19.835Z,100.00
2023-06-23T21:39:30.881Z,100.00
2023-06-23T21:42:36.878Z,100.00
2023-06-23T21:45:48.098Z,100.00
2023-06-23T21:49:10.714Z,100.00
2023-06-23T21:52:14.098Z,100.00
2023-06-23T21:55:19.553Z,100.00
2023-06-23T21:58:22.605Z,100.00
2023-06-23T22:01:26.545Z,100.00
2023-06-23T22:04:32.193Z,100.00
2023-06-23T22:07:37.466Z,100.00
2023-06-23T22:10:41.161Z,100.00
2023-06-23T22:14:03.640Z,100.00
2023-06-23T22:17:07.142Z,100.00
2023-06-23T22:20:14.397Z,100.00
2023-06-23T22:23:24.587Z,100.00
2023-06-23T22:26:47.324Z,100.00
2023-06-23T22:29:55.768Z,100.00
2023-06-23T22:33:05.719Z,100.00
2023-06-23T22:36:13.198Z,100.00
2023-06-23T22:39:16.226Z,100.00
2023-06-23T22:42:23.676Z,100.00
2023-06-23T22:45:43.522Z,100.00
2023-06-23T22:48:58.460Z,100.00
2023-06-23T22:52:02.275Z,100.00
2023-06-23T22:55:11.123Z,100.00
2023-06-23T22:58:14.298Z,100.00
2023-06-23T23:01:44.210Z,100.00
2023-06-23T23:04:50.126Z,100.00
2023-06-23T23:08:17.288Z,100.00
2023-06-23T23:11:25.381Z,100.00
2023-06-23T23:14:30.961Z,100.00
2023-06-23T23:17:37.035Z,100.00
2023-06-23T23:20:44.537Z,100.00
2023-06-23T23:23:47.561Z,100.00
2023-06-23T23:26:52.793Z,100.00
2023-06-23T23:30:00.904Z,100.00
2023-06-23T23:33:08.381Z,100.00
2023-06-23T23:36:15.067Z,100.00
2023-06-23T23:39:19.109Z,100.00
2023-06-23T23:42:46.983Z,100.00
2023-06-23T23:45:50.265Z,100.00
2023-06-23T23:48:53.045Z,100.00
2023-06-23T23:51:58.188Z,100.00
2023-06-23T23:55:01.161Z,100.00
2023-06-23T23:58:31.017Z,100.00
